Tuesday, June 19, 2018, 6:51 AM EDT
Back to Local

KCEF, Chicopee Falls / Westover Air Force Base

Location: Chicopee, MA, United States Lat: 42.2
Local Time: 6:51 AM EDT (10:51 GMT) Lon: -72.533
Time Zone: US/Eastern Elev: 246 ft

Show me the last for .
Show Decoded

2018-06-19 05:56 METAR KCEF 190956Z AUTO 35005KT 10SM BKN065 22/20 A2971 RMK AO2 RAE26 SLP065
                 P0002 T02180197 =
2018-06-19 05:26 METAR KCEF 190926Z AUTO 36004KT 10SM FEW003 SCT022 OVC036 22/21 A2970 RMK AO2
                 RAE26 SLP061 =
2018-06-19 04:59 METAR KCEF 190859Z AUTO 02008KT 6SM -RA BR FEW003 FEW023 BKN030 BKN047 22/22
                 A2969 RMK AO2 SLP058 =
2018-06-19 04:56 METAR KCEF 190856Z AUTO 00000KT 5SM -RA BR SCT027 BKN032 BKN047 22/22 A2968 RMK
                 AO2 RAB53 SLP054 P0001 60015 T02170217 50002 =
2018-06-19 04:53 METAR KCEF 190853Z AUTO 00000KT 5SM -RA BR SCT031 BKN047 22/22 A2968 RMK AO2
                 RAB53 SLP054 =
2018-06-19 04:26 METAR KCEF 190826Z AUTO 00000KT 4SM BR SCT003 BKN150 22/22 A2966 RMK AO2 VIS 1
                 3/8 RWY33 SLP048 =
2018-06-19 04:11 METAR KCEF 190811Z AUTO 00000KT 6SM BR BKN003 BKN110 BKN150 22/22 A2967 RMK AO2
                 CIG 003V110 BKN003 V SCT SLP051 =
2018-06-19 03:56 METAR KCEF 190756Z AUTO 00000KT 6SM BR FEW003 BKN110 22/22 A2966 RMK AO2 RAE14
                 SLP047 P0004 T02200216 =
2018-06-19 03:14 METAR KCEF 190714Z AUTO 22008KT 10SM FEW002 SCT029 BKN085 BKN120 23/22 A2965 RMK
                 AO2 RAE14 SLP044 =
2018-06-19 03:11 METAR KCEF 190711Z AUTO 22009KT 9SM -RA FEW002 BKN027 OVC085 23/22 A2965 RMK AO2
                 PRESFR SLP044 =
2018-06-19 02:56 METAR KCEF 190656Z AUTO 28008KT 2 1/4SM RA BR SCT002 OVC024 22/22 A2968 RMK AO2
                 VIS 2 1/4V5 DZB25E26RAB26 OVC V BKN SLP054 P0010 T02220220 =
2018-06-19 02:44 METAR KCEF 190644Z AUTO 00000KT 6SM RA BR FEW002 BKN024 BKN042 OVC070 22/22
                 A2968 RMK AO2 DZB25E26RAB26 CIG 024V043 SLP054 =
2018-06-19 02:25 METAR KCEF 190625Z AUTO 00000KT 10SM -DZ SCT043 BKN100 22/22 A2967 RMK AO2 DZB25
                 SLP051 =
2018-06-19 01:56 METAR KCEF 190556Z AUTO 17004KT 10SM FEW090 SCT110 SCT140 22/22 A2967 RMK AO2
                 SLP051 60050 T02200216 10259 20216 55021 =
2018-06-19 00:56 METAR KCEF 190456Z AUTO 15006KT 10SM FEW027 SCT065 SCT080 BKN100 22/21 A2967 RMK
                 AO2 RAB24E41 SLP051 P0003 T02190214 403450152 =
2018-06-19 00:41 METAR KCEF 190441Z AUTO 16004KT 10SM FEW030 SCT045 BKN060 22/21 A2968 RMK AO2
                 RAB24E41 PRESFR SLP054 =
2018-06-19 00:28 METAR KCEF 190428Z AUTO 17007KT 7SM -RA FEW002 FEW023 SCT032 BKN045 22/21 A2970
                 RMK AO2 RAB24 SLP061 =
2018-06-19 00:24 METAR KCEF 190424Z AUTO 18008KT 10SM -RA FEW033 BKN045 BKN095 22/21 A2971 RMK
                 AO2 RAB24 SLP065 =
2018-06-18 23:56 METAR KCEF 190356Z AUTO 18007KT 10SM FEW002 FEW019 BKN100 22/21 A2971 RMK AO2
                 RAB13E55 SLP065 P0009 T02160207 =
2018-06-18 23:55 METAR KCEF 190355Z AUTO 18007KT 10SM FEW002 SCT019 BKN100 22/21 A2971 RMK AO2
                 RAB13E55 PRESFR SLP065 =
2018-06-18 23:39 METAR KCEF 190339Z AUTO 20007KT 10SM -RA FEW002 SCT022 BKN045 22/21 A2973 RMK
                 AO2 RAB13 SLP072 =
2018-06-18 23:24 METAR KCEF 190324Z AUTO 22009KT 8SM -RA FEW002 BKN024 BKN050 22/21 A2974 RMK AO2
                 RAB13 CIG 024V060 SLP075 =
2018-06-18 23:13 METAR KCEF 190313Z AUTO 23005KT 10SM -RA FEW012 SCT049 SCT060 22/21 A2974 RMK
                 AO2 RAB13 SLP075 =
2018-06-18 22:56 METAR KCEF 190256Z 19007KT 10SM SCT048 BKN140 22/21 A2974 RMK AO2A SLP075 60038
                 T02200208 50006 =
2018-06-18 21:56 METAR KCEF 190156Z 17009KT 10SM FEW012 FEW085 BKN120 BKN180 23/22 A2975 RMK AO2A
                 SLP079 T02270217 =
2018-06-18 20:56 METAR KCEF 190056Z 18007KT 10SM FEW011 SCT070 BKN095 BKN150 23/22 A2975 RMK AO2A
                 LTG DSNT SE-S SLP079 P0038 T02290219 =
2018-06-18 20:49 METAR KCEF 190049Z 18008KT 10SM FEW011 BKN070CB BKN140 23/22 A2975 RMK AO2A LTG
                 DSNT SE SLP079 =
2018-06-18 20:35 METAR KCEF 190035Z 15004KT 9SM TS FEW15 BKN060 BKN120 23/22 A2976 RMK AO2A
                 SLP082 =
2018-06-18 20:21 METAR KCEF 190021Z 18012KT 4SM -TSRA FEW018 BKN038 BKN060 BKN120 24/22 A2975 RMK
                 AO2A PRESFR SLP079 =
2018-06-18 20:12 METAR KCEF 190012Z COR 33012KT 1/2SM R23/P6000FT +TSRA BKN038 OVC060 25/20 A2977
                 RMK AO2A PRESRR SLP085 COR 0015 =
2018-06-18 20:10 METAR KCEF 190010Z VRB03KT 4SM -TSRA SCT040 BKN060 OVC110 25/20 A2975 RMK AO2A
                 PRESRR SLP079 =
2018-06-18 20:03 METAR KCEF 190003Z 16009KT 10SM TS SCT040 BKN060 OVC100 26/20 A2971 RMK AO2A
                 SLP065 =
2018-06-18 19:56 METAR KCEF 182356Z 16011KT 10SM -TSRA SCT041 BKN060 OVC100 26/20 A2972 RMK AO2A
                 SLP068 P0000 60001 T02590204 10345 20259 55010 =
2018-06-18 19:52 METAR KCEF 182352Z 17011KT 10SM -TSRA BKN041 BKN080 OVC120 26/20 A2972 RMK AO2A
                 SLP068 =
2018-06-18 19:44 METAR KCEF 182344Z 17012KT 10SM VCTS BKN041 BKN080 OVC120 26/21 A2971 RMK AO2A
                 SLP065 =
2018-06-18 19:04 METAR KCEF 182304Z 10008G15KT 10SM SCT039CB BKN070 BKN180 27/22 A2975 RMK AO2A
                 LGT DSNT E SLP079 =
2018-06-18 18:56 METAR KCEF 182256Z 36010G18KT 10SM TS BKN039 BKN070 OVC180 29/21 A2976 RMK AO2A
                 SLP082 T02850212 =
2018-06-18 18:08 METAR KCEF 182208Z COR 19013G22KT 10SM TS SCT037 BKN050 OVC100 28/21 A2972 RMK
                 AO2A COR 2212 =
2018-06-18 17:56 METAR KCEF 182156Z 19018G22KT 10SM TS SCT037 BKN050 OVC120 28/21 A2971 RMK AO2A
                 SLP065 P0001 T02800210 =
2018-06-18 17:51 METAR KCEF 182151Z 18018G22KT 10SM TS SCT037 BKN050 OVC100 28/21 A2971 RMK AO2A
                 SLP065 =
2018-06-18 17:28 METAR KCEF 182128Z 18013G24KT 5SM -TSRA SCT033 BKN050 OVC100 29/22 A2972 RMK
                 AO2A SLP069 =
2018-06-18 17:22 METAR KCEF 182122Z 18019G24KT 5SM -RA VCTS SCT033CB BKN080 OVC130 30/21 A2972
                 RMK AO2A PRESFR SLP069 =
2018-06-18 16:56 METAR KCEF 182056Z 20015G22KT 10SM SCT050 BKN130 BKN200 31/21 A2975 RMK AO2A
                 SLPNO T03130211 57024 =

Support USWX by starting your Amazon purchase here.